Terminal Aerodrome Forecast
Issued by NWS

Home | Current Version | Previous Version | Text Only | Print | Product List | Glossary On
Versions: 1 2 3 4 5 6 7 8 9 10 11 12 13 14 15 16 17 18 19 20 21 22 23 24 25
000
FTUS43 KDLH 221500 AAB
TAFHIB
TAF AMD
KHIB 221504Z 2215/2312 30014G23KT P6SM OVC020
      TEMPO 2215/2217 32018G29KT
     FM221900 33012G21KT P6SM BKN025
     FM222200 33010G18KT P6SM SCT035
     FM230000 33008KT P6SM SKC=

USA.gov is the U.S. government's official web portal to all federal, state and local government web resources and services.